createdAt,value
2016-03-24T00:00:59.063Z,986.41
2016-03-24T00:01:59.066Z,986.41
2016-03-24T00:02:59.068Z,986.41
2016-03-24T00:03:59.071Z,986.42
2016-03-24T00:04:59.058Z,986.46
2016-03-24T00:05:59.061Z,986.43
2016-03-24T00:06:59.063Z,986.46
2016-03-24T00:07:59.050Z,986.42
2016-03-24T00:08:59.052Z,986.43
2016-03-24T00:09:59.056Z,986.45
2016-03-24T00:10:59.058Z,986.46
2016-03-24T00:11:59.046Z,986.47
2016-03-24T00:12:59.048Z,986.48
2016-03-24T00:13:59.051Z,986.49
2016-03-24T00:14:59.038Z,986.49
2016-03-24T00:15:59.041Z,986.51
2016-03-24T00:16:59.043Z,986.53
2016-03-24T00:17:59.046Z,986.5
2016-03-24T00:18:59.034Z,986.55
2016-03-24T00:19:59.036Z,986.53
2016-03-24T00:20:59.039Z,986.51
2016-03-24T00:21:59.041Z,986.55
2016-03-24T00:22:59.029Z,986.52
2016-03-24T00:23:59.047Z,986.57
2016-03-24T00:24:59.018Z,986.57
2016-03-24T00:25:59.020Z,986.52
2016-03-24T00:26:59.023Z,986.54
2016-03-24T00:27:59.026Z,986.54
2016-03-24T00:28:59.029Z,986.51
2016-03-24T00:29:59.016Z,986.52
2016-03-24T00:30:59.019Z,986.51
2016-03-24T00:31:59.022Z,986.55
2016-03-24T00:32:59.009Z,986.51
2016-03-24T00:33:59.042Z,986.55
2016-03-24T00:34:59.013Z,986.53
2016-03-24T00:35:59.016Z,986.59
2016-03-24T00:36:59.003Z,986.58
2016-03-24T00:37:59.006Z,986.61
2016-03-24T00:38:59.024Z,986.62
2016-03-24T00:39:58.996Z,986.63
2016-03-24T00:40:58.998Z,986.63
2016-03-24T00:41:59.002Z,986.59
2016-03-24T00:42:58.988Z,986.62
2016-03-24T00:43:58.991Z,986.57
2016-03-24T00:44:59.009Z,986.57
2016-03-24T00:45:58.997Z,986.54
2016-03-24T00:46:58.984Z,986.58
2016-03-24T00:47:58.987Z,986.58
2016-03-24T00:48:58.989Z,986.55
2016-03-24T00:49:58.992Z,986.57
2016-03-24T00:50:58.979Z,986.56
2016-03-24T00:51:58.981Z,986.54
2016-03-24T00:52:58.984Z,986.54
2016-03-24T00:53:58.970Z,986.57
2016-03-24T00:54:58.973Z,986.54
2016-03-24T00:55:58.976Z,986.55
2016-03-24T00:56:58.979Z,986.62
2016-03-24T00:57:58.981Z,986.54
2016-03-24T00:58:58.984Z,986.58
2016-03-24T00:59:58.987Z,986.54
2016-03-24T01:00:58.974Z,986.52
2016-03-24T01:01:58.961Z,986.55
2016-03-24T01:02:58.963Z,986.49
2016-03-24T01:03:58.967Z,986.55
2016-03-24T01:04:58.969Z,986.49
2016-03-24T01:05:58.956Z,986.49
2016-03-24T01:06:58.958Z,986.46
2016-03-24T01:07:58.961Z,986.5
2016-03-24T01:08:58.963Z,986.5
2016-03-24T01:09:58.967Z,986.48
2016-03-24T01:10:58.954Z,986.52
2016-03-24T01:11:58.957Z,986.48
2016-03-24T01:12:58.960Z,986.52
2016-03-24T01:13:58.947Z,986.53
2016-03-24T01:14:58.949Z,986.52
2016-03-24T01:15:58.952Z,986.49
2016-03-24T01:16:58.954Z,986.48
2016-03-24T01:17:58.942Z,986.52
2016-03-24T01:18:58.944Z,986.49
2016-03-24T01:19:58.947Z,986.47
2016-03-24T01:20:58.934Z,986.47
2016-03-24T01:21:58.936Z,986.46
2016-03-24T01:22:58.939Z,986.43
2016-03-24T01:23:58.926Z,986.46
2016-03-24T01:24:58.929Z,986.46
2016-03-24T01:25:58.931Z,986.44
2016-03-24T01:26:58.935Z,986.49
2016-03-24T01:27:58.953Z,986.5
2016-03-24T01:28:58.940Z,986.5
2016-03-24T01:29:58.927Z,986.49
2016-03-24T01:30:58.930Z,986.45
2016-03-24T01:31:58.932Z,986.46
2016-03-24T01:32:58.920Z,986.49
2016-03-24T01:33:58.922Z,986.43
2016-03-24T01:34:58.909Z,986.52
2016-03-24T01:35:58.911Z,986.49
2016-03-24T01:36:58.914Z,986.48
2016-03-24T01:37:58.917Z,986.48
2016-03-24T01:38:58.920Z,986.46
2016-03-24T01:39:58.907Z,986.48
2016-03-24T01:40:58.910Z,986.5
2016-03-24T01:41:58.913Z,986.48
2016-03-24T01:42:58.915Z,986.51
2016-03-24T01:43:58.902Z,986.48
2016-03-24T01:44:58.904Z,986.53
2016-03-24T01:45:58.907Z,986.53
2016-03-24T01:46:58.895Z,986.51
2016-03-24T01:47:58.898Z,986.5
2016-03-24T01:48:58.900Z,986.48
2016-03-24T01:49:58.887Z,986.5
2016-03-24T01:50:58.889Z,986.5
2016-03-24T01:51:58.893Z,986.49
2016-03-24T01:52:58.895Z,986.55
2016-03-24T01:53:58.898Z,986.5
2016-03-24T01:54:58.901Z,986.54
2016-03-24T01:55:58.888Z,986.51
2016-03-24T01:56:58.890Z,986.53
2016-03-24T01:57:58.878Z,986.5
2016-03-24T01:58:58.880Z,986.52
2016-03-24T01:59:58.883Z,986.52
2016-03-24T02:00:58.886Z,986.54
2016-03-24T02:01:58.888Z,986.53
2016-03-24T02:02:58.875Z,986.51
2016-03-24T02:03:58.893Z,986.54
2016-03-24T02:04:58.864Z,986.53
2016-03-24T02:05:58.883Z,986.58
2016-03-24T02:06:58.870Z,986.57
2016-03-24T02:07:58.872Z,986.57
2016-03-24T02:08:58.875Z,986.58
2016-03-24T02:09:58.863Z,986.56
2016-03-24T02:10:58.881Z,986.51
2016-03-24T02:11:58.868Z,986.56
2016-03-24T02:12:58.855Z,986.58
2016-03-24T02:13:58.857Z,986.55
2016-03-24T02:14:58.861Z,986.49
2016-03-24T02:15:58.848Z,986.52
2016-03-24T02:16:58.850Z,986.56
2016-03-24T02:17:58.853Z,986.53
2016-03-24T02:18:58.856Z,986.52
2016-03-24T02:19:58.843Z,986.52
2016-03-24T02:20:58.862Z,986.49
2016-03-24T02:21:58.848Z,986.51
2016-03-24T02:22:58.851Z,986.51
2016-03-24T02:23:58.854Z,986.51
2016-03-24T02:24:58.841Z,986.53
2016-03-24T02:25:58.843Z,986.49
2016-03-24T02:26:58.846Z,986.49
2016-03-24T02:27:58.833Z,986.52
2016-03-24T02:28:58.851Z,986.54
2016-03-24T02:29:58.839Z,986.52
2016-03-24T02:30:58.825Z,986.53
2016-03-24T02:31:58.844Z,986.53
2016-03-24T02:32:58.830Z,986.57
2016-03-24T02:33:58.817Z,986.54
2016-03-24T02:34:58.836Z,986.52
2016-03-24T02:35:58.823Z,986.5
2016-03-24T02:36:58.825Z,986.52
2016-03-24T02:37:58.813Z,986.54
2016-03-24T02:38:58.831Z,986.49
2016-03-24T02:39:58.819Z,986.48
2016-03-24T02:40:58.822Z,986.55
2016-03-24T02:41:58.808Z,986.54
2016-03-24T02:42:58.811Z,986.54
2016-03-24T02:43:58.814Z,986.59
2016-03-24T02:44:58.801Z,986.55
2016-03-24T02:45:58.804Z,986.58
2016-03-24T02:46:58.821Z,986.62
2016-03-24T02:47:58.809Z,986.6
2016-03-24T02:48:58.812Z,986.66
2016-03-24T02:49:58.799Z,986.64
2016-03-24T02:50:58.801Z,986.63
2016-03-24T02:51:58.804Z,986.65
2016-03-24T02:52:58.791Z,986.62
2016-03-24T02:53:58.794Z,986.59
2016-03-24T02:54:58.796Z,986.62
2016-03-24T02:55:58.784Z,986.61
2016-03-24T02:56:58.801Z,986.59
2016-03-24T02:57:58.804Z,986.59
2016-03-24T02:58:58.792Z,986.59
2016-03-24T02:59:58.794Z,986.62
2016-03-24T03:00:58.781Z,986.59
2016-03-24T03:01:58.783Z,986.62
2016-03-24T03:02:58.786Z,986.62
2016-03-24T03:03:58.773Z,986.59
2016-03-24T03:04:58.776Z,986.61
2016-03-24T03:05:58.778Z,986.62
2016-03-24T03:06:58.782Z,986.6
2016-03-24T03:07:58.784Z,986.63
2016-03-24T03:08:58.772Z,986.55
2016-03-24T03:09:58.774Z,986.57
2016-03-24T03:10:58.761Z,986.56
2016-03-24T03:11:58.779Z,986.55
2016-03-24T03:12:58.767Z,986.55
2016-03-24T03:13:58.754Z,986.55
2016-03-24T03:14:58.757Z,986.59
2016-03-24T03:15:58.759Z,986.58
2016-03-24T03:16:58.762Z,986.59
2016-03-24T03:17:58.764Z,986.57
2016-03-24T03:18:58.752Z,986.58
2016-03-24T03:19:58.754Z,986.62
2016-03-24T03:20:58.741Z,986.6
2016-03-24T03:21:58.760Z,986.63
2016-03-24T03:22:58.747Z,986.57
2016-03-24T03:23:58.749Z,986.61
2016-03-24T03:24:58.752Z,986.62
2016-03-24T03:25:58.754Z,986.63
2016-03-24T03:26:58.742Z,986.65
2016-03-24T03:27:58.745Z,986.63
2016-03-24T03:28:58.732Z,986.62
2016-03-24T03:29:58.734Z,986.63
2016-03-24T03:30:58.737Z,986.6
2016-03-24T03:31:58.723Z,986.62
2016-03-24T03:32:58.726Z,986.61
2016-03-24T03:33:58.729Z,986.61
2016-03-24T03:34:58.732Z,986.59
2016-03-24T03:35:58.735Z,986.62
2016-03-24T03:36:58.722Z,986.6
2016-03-24T03:37:58.725Z,986.53
2016-03-24T03:38:58.727Z,986.57
2016-03-24T03:39:58.730Z,986.59
2016-03-24T03:40:58.716Z,986.56
2016-03-24T03:41:58.720Z,986.61
2016-03-24T03:42:58.707Z,986.56
2016-03-24T03:43:58.710Z,986.56
2016-03-24T03:44:58.712Z,986.65
2016-03-24T03:45:58.699Z,986.66
2016-03-24T03:46:58.717Z,986.67
2016-03-24T03:47:58.704Z,986.65
2016-03-24T03:48:58.723Z,986.66
2016-03-24T03:49:58.710Z,986.65
2016-03-24T03:50:58.712Z,986.62
2016-03-24T03:51:58.700Z,986.59
2016-03-24T03:52:58.702Z,986.67
2016-03-24T03:53:58.705Z,986.62
2016-03-24T03:54:58.692Z,986.62
2016-03-24T03:55:58.695Z,986.64
2016-03-24T03:56:58.697Z,986.58
2016-03-24T03:57:58.732Z,986.64
2016-03-24T03:58:58.734Z,986.64
2016-03-24T03:59:58.690Z,986.65
2016-03-24T04:00:58.692Z,986.67
2016-03-24T04:01:58.679Z,986.68
2016-03-24T04:02:58.682Z,986.69
2016-03-24T04:03:58.685Z,986.73
2016-03-24T04:04:58.687Z,986.75
2016-03-24T04:05:58.675Z,986.75
2016-03-24T04:06:58.683Z,986.73
2016-03-24T04:07:58.669Z,986.74
2016-03-24T04:08:58.672Z,986.72
2016-03-24T04:09:58.674Z,986.71
2016-03-24T04:10:58.677Z,986.68
2016-03-24T04:11:58.679Z,986.73
2016-03-24T04:12:58.667Z,986.71
2016-03-24T04:13:58.669Z,986.71
2016-03-24T04:14:58.672Z,986.7
2016-03-24T04:15:58.659Z,986.7
2016-03-24T04:16:58.663Z,986.74
2016-03-24T04:17:58.665Z,986.67
2016-03-24T04:18:58.668Z,986.71
2016-03-24T04:19:58.654Z,986.75
2016-03-24T04:20:58.657Z,986.71
2016-03-24T04:21:58.645Z,986.72
2016-03-24T04:22:58.648Z,986.79
2016-03-24T04:23:58.650Z,986.76
2016-03-24T04:24:58.653Z,986.8
2016-03-24T04:25:58.656Z,986.76
2016-03-24T04:26:58.642Z,986.79
2016-03-24T04:27:58.645Z,986.81
2016-03-24T04:28:58.648Z,986.8
2016-03-24T04:29:58.634Z,986.83
2016-03-24T04:30:58.653Z,986.84
2016-03-24T04:31:58.640Z,986.85
2016-03-24T04:32:58.642Z,986.85
2016-03-24T04:33:58.645Z,986.85
2016-03-24T04:34:58.632Z,986.9
2016-03-24T04:35:58.635Z,986.92
2016-03-24T04:36:58.622Z,986.94
2016-03-24T04:37:58.625Z,986.97
2016-03-24T04:38:58.627Z,986.96
2016-03-24T04:39:58.630Z,987
2016-03-24T04:40:58.632Z,987.02
2016-03-24T04:41:58.619Z,987.01
2016-03-24T04:42:58.622Z,987.03
2016-03-24T04:43:58.610Z,987.05
2016-03-24T04:44:58.612Z,987.06
2016-03-24T04:45:58.615Z,987
2016-03-24T04:46:58.618Z,987
2016-03-24T04:47:58.621Z,987.02
2016-03-24T04:48:58.654Z,987.03
2016-03-24T04:49:58.610Z,987.05
2016-03-24T04:50:58.612Z,987.02
2016-03-24T04:51:58.616Z,987.06
2016-03-24T04:52:58.618Z,987.07
2016-03-24T04:53:58.606Z,987.06
2016-03-24T04:54:58.608Z,987.05
2016-03-24T04:55:58.611Z,987.1
2016-03-24T04:56:58.613Z,987.11
2016-03-24T04:57:58.617Z,987.16
2016-03-24T04:58:58.603Z,987.19
2016-03-24T04:59:58.606Z,987.2
2016-03-24T05:00:58.592Z,987.21
2016-03-24T05:01:58.596Z,987.22
2016-03-24T05:02:58.598Z,987.24
2016-03-24T05:03:58.617Z,987.22
2016-03-24T05:04:58.588Z,987.25
2016-03-24T05:05:58.591Z,987.24
2016-03-24T05:06:58.593Z,987.22
2016-03-24T05:07:58.581Z,987.3
2016-03-24T05:08:58.583Z,987.28
2016-03-24T05:09:58.586Z,987.31
2016-03-24T05:10:58.588Z,987.35
2016-03-24T05:11:58.591Z,987.35
2016-03-24T05:12:58.594Z,987.36
2016-03-24T05:14:01.612Z,987.36
2016-03-24T05:14:58.583Z,987.36
2016-03-24T05:15:58.571Z,987.36
2016-03-24T05:16:58.574Z,987.38
2016-03-24T05:17:58.576Z,987.35
2016-03-24T05:18:58.579Z,987.38
2016-03-24T05:19:58.566Z,987.37
2016-03-24T05:20:58.568Z,987.43
2016-03-24T05:21:58.571Z,987.41
2016-03-24T05:22:58.559Z,987.4
2016-03-24T05:23:58.561Z,987.44
2016-03-24T05:24:58.564Z,987.47
2016-03-24T05:25:58.581Z,987.46
2016-03-24T05:26:58.569Z,987.46
2016-03-24T05:27:58.572Z,987.49
2016-03-24T05:28:58.559Z,987.52
2016-03-24T05:29:58.561Z,987.54
2016-03-24T05:30:58.548Z,987.56
2016-03-24T05:31:58.551Z,987.56
2016-03-24T05:32:58.570Z,987.62
2016-03-24T05:33:58.556Z,987.65
2016-03-24T05:34:58.544Z,987.62
2016-03-24T05:35:58.546Z,987.69
2016-03-24T05:36:58.550Z,987.67
2016-03-24T05:37:58.552Z,987.7
2016-03-24T05:38:58.539Z,987.72
2016-03-24T05:39:58.541Z,987.71
2016-03-24T05:40:58.544Z,987.72
2016-03-24T05:41:58.546Z,987.76
2016-03-24T05:42:58.550Z,987.78
2016-03-24T05:43:58.536Z,987.75
2016-03-24T05:44:58.539Z,987.77
2016-03-24T05:45:58.527Z,987.8
2016-03-24T05:46:58.530Z,987.8
2016-03-24T05:47:58.532Z,987.83
2016-03-24T05:48:58.535Z,987.84
2016-03-24T05:49:58.521Z,987.84
2016-03-24T05:50:58.524Z,987.86
2016-03-24T05:51:58.527Z,987.84
2016-03-24T05:52:58.530Z,987.81
2016-03-24T05:53:58.532Z,987.82
2016-03-24T05:54:58.520Z,987.87
2016-03-24T05:55:58.522Z,987.84
2016-03-24T05:56:58.509Z,987.91
2016-03-24T05:57:58.512Z,987.9
2016-03-24T05:58:58.515Z,987.93
2016-03-24T05:59:58.533Z,987.94
2016-03-24T06:00:58.520Z,987.93
2016-03-24T06:01:58.523Z,987.95
2016-03-24T06:02:58.525Z,987.98
2016-03-24T06:03:58.528Z,987.99
2016-03-24T06:04:58.514Z,988
2016-03-24T06:05:58.502Z,987.99
2016-03-24T06:06:58.505Z,987.98
2016-03-24T06:07:58.508Z,987.99
2016-03-24T06:08:58.495Z,988.02
2016-03-24T06:09:58.513Z,988.06
2016-03-24T06:10:58.499Z,988.04
2016-03-24T06:11:58.486Z,988.06
2016-03-24T06:12:58.505Z,988.04
2016-03-24T06:13:58.508Z,988
2016-03-24T06:14:58.494Z,988.02
2016-03-24T06:15:58.497Z,988.07
2016-03-24T06:16:58.485Z,988.01
2016-03-24T06:17:58.488Z,988.02
2016-03-24T06:18:58.490Z,988.09
2016-03-24T06:19:58.477Z,988.08
2016-03-24T06:20:58.495Z,988.08
2016-03-24T06:21:58.482Z,988.09
2016-03-24T06:22:58.485Z,988.14
2016-03-24T06:23:58.488Z,988.06
2016-03-24T06:24:58.490Z,988.1
2016-03-24T06:25:58.493Z,988.07
2016-03-24T06:26:58.495Z,988.09
2016-03-24T06:27:58.484Z,988.15
2016-03-24T06:28:59.095Z,988.16
2016-03-24T06:29:58.473Z,988.16
2016-03-24T06:30:58.491Z,988.19
2016-03-24T06:31:58.479Z,988.24
2016-03-24T06:32:58.481Z,988.23
2016-03-24T06:33:58.468Z,988.23
2016-03-24T06:34:58.470Z,988.23
2016-03-24T06:35:58.473Z,988.29
2016-03-24T06:36:58.476Z,988.28
2016-03-24T06:37:58.464Z,988.32
2016-03-24T06:38:58.466Z,988.28
2016-03-24T06:39:58.469Z,988.32
2016-03-24T06:40:58.471Z,988.3
2016-03-24T06:41:58.474Z,988.32
2016-03-24T06:42:58.461Z,988.36
2016-03-24T06:43:58.464Z,988.35
2016-03-24T06:44:58.466Z,988.39
2016-03-24T06:45:58.453Z,988.4
2016-03-24T06:46:58.456Z,988.39
2016-03-24T06:47:58.459Z,988.42
2016-03-24T06:48:58.461Z,988.45
2016-03-24T06:49:58.479Z,988.41
2016-03-24T06:50:58.482Z,988.37
2016-03-24T06:51:58.485Z,988.42
2016-03-24T06:52:58.472Z,988.4
2016-03-24T06:53:58.459Z,988.39
2016-03-24T06:54:58.462Z,988.44
2016-03-24T06:55:58.448Z,988.41
2016-03-24T06:56:58.452Z,988.45
2016-03-24T06:57:58.454Z,988.46
2016-03-24T06:58:58.473Z,988.43
2016-03-24T06:59:58.459Z,988.45
2016-03-24T07:00:58.463Z,988.46
2016-03-24T07:01:58.465Z,988.45
2016-03-24T07:02:58.468Z,988.46
2016-03-24T07:03:58.439Z,988.45
2016-03-24T07:04:58.442Z,988.5
2016-03-24T07:05:58.445Z,988.53
2016-03-24T07:06:58.432Z,988.51
2016-03-24T07:07:58.434Z,988.53
2016-03-24T07:08:58.437Z,988.54
2016-03-24T07:09:58.440Z,988.54
2016-03-24T07:10:58.428Z,988.56
2016-03-24T07:11:58.430Z,988.52
2016-03-24T07:12:58.432Z,988.53
2016-03-24T07:13:58.419Z,988.59
2016-03-24T07:14:58.438Z,988.64
2016-03-24T07:15:58.441Z,988.61
2016-03-24T07:16:58.443Z,988.63
2016-03-24T07:17:58.430Z,988.64
2016-03-24T07:18:58.432Z,988.61
2016-03-24T07:19:58.420Z,988.62
2016-03-24T07:20:58.422Z,988.6
2016-03-24T07:21:58.424Z,988.62
2016-03-24T07:22:58.413Z,988.61
2016-03-24T07:23:58.415Z,988.62
2016-03-24T07:24:58.418Z,988.67
2016-03-24T07:25:58.421Z,988.63
2016-03-24T07:26:58.423Z,988.63
2016-03-24T07:27:58.410Z,988.6
2016-03-24T07:28:58.413Z,988.63
2016-03-24T07:29:58.416Z,988.61
2016-03-24T07:30:58.418Z,988.56
2016-03-24T07:31:58.405Z,988.6
2016-03-24T07:32:58.409Z,988.56
2016-03-24T07:33:58.411Z,988.66
2016-03-24T07:34:58.398Z,988.64
2016-03-24T07:35:58.401Z,988.65
2016-03-24T07:36:58.403Z,988.67
2016-03-24T07:37:58.390Z,988.67
2016-03-24T07:38:58.392Z,988.66
2016-03-24T07:39:58.395Z,988.68
2016-03-24T07:40:58.398Z,988.65
2016-03-24T07:41:58.385Z,988.69
2016-03-24T07:42:58.388Z,988.7
2016-03-24T07:43:58.391Z,988.73
2016-03-24T07:44:58.394Z,988.75
2016-03-24T07:45:58.380Z,988.72
2016-03-24T07:46:58.383Z,988.75
2016-03-24T07:47:58.385Z,988.75
2016-03-24T07:48:58.373Z,988.77
2016-03-24T07:49:58.375Z,988.77
2016-03-24T07:50:58.377Z,988.79
2016-03-24T07:51:58.381Z,988.8
2016-03-24T07:52:58.383Z,988.85
2016-03-24T07:53:58.371Z,988.91
2016-03-24T07:54:58.374Z,988.89
2016-03-24T07:55:58.376Z,988.89
2016-03-24T07:56:58.363Z,988.9
2016-03-24T07:57:58.366Z,988.9
2016-03-24T07:58:58.385Z,988.93
2016-03-24T07:59:58.356Z,988.96
2016-03-24T08:00:58.358Z,988.98
2016-03-24T08:01:58.362Z,988.98
2016-03-24T08:02:58.348Z,988.99
2016-03-24T08:03:58.367Z,988.95
2016-03-24T08:04:58.354Z,988.99
2016-03-24T08:05:58.356Z,988.96
2016-03-24T08:06:58.377Z,989.01
2016-03-24T08:07:58.356Z,989.01
2016-03-24T08:08:58.358Z,989.02
2016-03-24T08:09:58.345Z,989.06
2016-03-24T08:10:58.348Z,989.05
2016-03-24T08:11:58.350Z,989.06
2016-03-24T08:12:58.338Z,989.03
2016-03-24T08:13:58.340Z,989.1
2016-03-24T08:14:58.343Z,989.09
2016-03-24T08:15:58.346Z,989.12
2016-03-24T08:16:58.349Z,989.1
2016-03-24T08:17:58.335Z,989.11
2016-03-24T08:18:58.338Z,989.13
2016-03-24T08:19:58.341Z,989.14
2016-03-24T08:20:58.344Z,989.1
2016-03-24T08:21:58.346Z,989.13
2016-03-24T08:22:58.333Z,989.09
2016-03-24T08:23:58.352Z,989.11
2016-03-24T08:24:58.339Z,989.12
2016-03-24T08:25:58.342Z,989.14
2016-03-24T08:26:58.345Z,989.15
2016-03-24T08:27:58.347Z,989.12
2016-03-24T08:28:58.334Z,989.11
2016-03-24T08:29:58.337Z,989.14
2016-03-24T08:30:58.339Z,989.09
2016-03-24T08:31:58.342Z,989.09
2016-03-24T08:32:58.329Z,989.1
2016-03-24T08:33:58.331Z,989.11
2016-03-24T08:34:58.323Z,989.1
2016-03-24T08:35:58.310Z,989.06
2016-03-24T08:36:58.296Z,989.08
2016-03-24T08:37:58.284Z,989.1
2016-03-24T08:38:58.270Z,989.07
2016-03-24T08:39:58.264Z,989.04
2016-03-24T08:40:58.247Z,989.06
2016-03-24T08:41:58.243Z,989.05
2016-03-24T08:42:58.241Z,989.07
2016-03-24T08:43:58.237Z,989.1
2016-03-24T08:44:58.237Z,989.06
2016-03-24T08:45:58.221Z,989.08
2016-03-24T08:46:58.222Z,989.09
2016-03-24T08:47:58.224Z,989.11
2016-03-24T08:48:58.224Z,989.13
2016-03-24T08:49:58.226Z,989.15
2016-03-24T08:50:58.227Z,989.13
2016-03-24T08:51:58.230Z,989.2
2016-03-24T08:52:58.215Z,989.17
2016-03-24T08:53:58.234Z,989.21
2016-03-24T08:54:58.236Z,989.23
2016-03-24T08:55:58.222Z,989.16
2016-03-24T08:56:58.225Z,989.19
2016-03-24T08:57:58.211Z,989.14
2016-03-24T08:58:58.229Z,989.17
2016-03-24T08:59:58.216Z,989.19
2016-03-24T09:00:58.219Z,989.2
2016-03-24T09:01:58.222Z,989.23
2016-03-24T09:02:58.225Z,989.24
2016-03-24T09:03:58.227Z,989.2
2016-03-24T09:04:58.230Z,989.21
2016-03-24T09:05:58.233Z,989.26
2016-03-24T09:06:58.235Z,989.26
2016-03-24T09:07:58.238Z,989.29
2016-03-24T09:08:58.240Z,989.29
2016-03-24T09:09:58.227Z,989.33
2016-03-24T09:10:58.246Z,989.33
2016-03-24T09:11:58.249Z,989.34
2016-03-24T09:12:58.251Z,989.32
2016-03-24T09:13:58.223Z,989.32
2016-03-24T09:14:58.226Z,989.28
2016-03-24T09:15:58.228Z,989.28
2016-03-24T09:16:58.246Z,989.29
2016-03-24T09:17:58.234Z,989.3
2016-03-24T09:18:58.236Z,989.29
2016-03-24T09:19:58.239Z,989.31
2016-03-24T09:20:58.242Z,989.31
2016-03-24T09:21:58.245Z,989.31
2016-03-24T09:22:58.247Z,989.34
2016-03-24T09:23:58.250Z,989.31
2016-03-24T09:24:58.237Z,989.35
2016-03-24T09:25:58.255Z,989.39
2016-03-24T09:26:58.258Z,989.38
2016-03-24T09:27:58.245Z,989.38
2016-03-24T09:28:58.248Z,989.36
2016-03-24T09:29:58.250Z,989.36
2016-03-24T09:30:58.253Z,989.36
2016-03-24T09:31:58.255Z,989.38
2016-03-24T09:32:58.258Z,989.36
2016-03-24T09:33:58.261Z,989.35
2016-03-24T09:34:58.263Z,989.38
2016-03-24T09:35:58.266Z,989.35
2016-03-24T09:36:58.253Z,989.34
2016-03-24T09:37:58.272Z,989.36
2016-03-24T09:38:58.258Z,989.35
2016-03-24T09:39:58.261Z,989.36
2016-03-24T09:40:58.296Z,989.35
2016-03-24T09:41:58.266Z,989.38
2016-03-24T09:42:58.269Z,989.39
2016-03-24T09:43:58.272Z,989.35
2016-03-24T09:44:58.275Z,989.36
2016-03-24T09:45:58.277Z,989.39
2016-03-24T09:46:58.265Z,989.38
2016-03-24T09:47:58.283Z,989.41
2016-03-24T09:48:58.270Z,989.42
2016-03-24T09:49:58.288Z,989.45
2016-03-24T09:50:58.275Z,989.43
2016-03-24T09:51:58.293Z,989.44
2016-03-24T09:52:58.281Z,989.44
2016-03-24T09:53:58.283Z,989.47
2016-03-24T09:54:58.287Z,989.42
2016-03-24T09:55:58.304Z,989.41
2016-03-24T09:56:58.291Z,989.4
2016-03-24T09:57:58.295Z,989.42
2016-03-24T09:58:58.297Z,989.46
2016-03-24T09:59:58.299Z,989.4
2016-03-24T10:00:58.303Z,989.41
2016-03-24T10:01:58.305Z,989.46
2016-03-24T10:02:58.308Z,989.44
2016-03-24T10:03:58.311Z,989.46
2016-03-24T10:04:58.313Z,989.44
2016-03-24T10:05:58.316Z,989.47
2016-03-24T10:06:58.319Z,989.41
2016-03-24T10:07:58.321Z,989.41
2016-03-24T10:08:58.323Z,989.4
2016-03-24T10:09:58.327Z,989.42
2016-03-24T10:10:58.329Z,989.44
2016-03-24T10:11:58.332Z,989.46
2016-03-24T10:12:58.319Z,989.45
2016-03-24T10:13:58.338Z,989.48
2016-03-24T10:14:58.340Z,989.43
2016-03-24T10:15:58.327Z,989.41
2016-03-24T10:16:58.345Z,989.45
2016-03-24T10:17:58.348Z,989.47
2016-03-24T10:18:58.351Z,989.45
2016-03-24T10:19:58.354Z,989.47
2016-03-24T10:20:58.356Z,989.42
2016-03-24T10:21:58.343Z,989.47
2016-03-24T10:22:58.362Z,989.45
2016-03-24T10:23:58.365Z,989.45
2016-03-24T10:24:58.367Z,989.47
2016-03-24T10:25:58.353Z,989.45
2016-03-24T10:26:58.372Z,989.5
2016-03-24T10:27:58.375Z,989.51
2016-03-24T10:28:58.362Z,989.53
2016-03-24T10:29:58.364Z,989.52
2016-03-24T10:30:58.384Z,989.52
2016-03-24T10:31:58.386Z,989.6
2016-03-24T10:32:58.373Z,989.56
2016-03-24T10:33:58.375Z,989.59
2016-03-24T10:34:58.409Z,989.57
2016-03-24T10:35:58.381Z,989.53
2016-03-24T10:36:58.399Z,989.54
2016-03-24T10:37:58.401Z,989.56
2016-03-24T10:38:58.405Z,989.52
2016-03-24T10:39:58.391Z,989.5
2016-03-24T10:40:58.410Z,989.51
2016-03-24T10:41:58.412Z,989.53
2016-03-24T10:42:58.416Z,989.49
2016-03-24T10:43:58.418Z,989.49
2016-03-24T10:44:58.420Z,989.47
2016-03-24T10:45:58.423Z,989.49
2016-03-24T10:46:58.426Z,989.49
2016-03-24T10:47:58.428Z,989.48
2016-03-24T10:48:58.431Z,989.49
2016-03-24T10:49:58.481Z,989.52
2016-03-24T10:50:58.437Z,989.55
2016-03-24T10:51:58.439Z,989.49
2016-03-24T10:52:58.442Z,989.47
2016-03-24T10:53:58.445Z,989.44
2016-03-24T10:54:58.448Z,989.43
2016-03-24T10:55:58.450Z,989.44
2016-03-24T10:56:58.453Z,989.48
2016-03-24T10:57:58.471Z,989.42
2016-03-24T10:58:58.458Z,989.37
2016-03-24T10:59:58.476Z,989.41
2016-03-24T11:00:58.478Z,989.39
2016-03-24T11:01:58.482Z,989.39
2016-03-24T11:02:58.485Z,989.36
2016-03-24T11:03:58.487Z,989.33
2016-03-24T11:04:58.537Z,989.28
2016-03-24T11:05:58.508Z,989.27
2016-03-24T11:06:58.511Z,989.3
2016-03-24T11:07:58.498Z,989.3
2016-03-24T11:08:58.516Z,989.3
2016-03-24T11:09:58.502Z,989.36
2016-03-24T11:10:58.521Z,989.36
2016-03-24T11:11:58.524Z,989.38
2016-03-24T11:12:58.527Z,989.32
2016-03-24T11:13:58.514Z,989.34
2016-03-24T11:14:58.532Z,989.33
2016-03-24T11:15:58.519Z,989.3
2016-03-24T11:16:58.537Z,989.3
2016-03-24T11:17:58.525Z,989.27
2016-03-24T11:18:58.527Z,989.28
2016-03-24T11:19:58.546Z,989.26
2016-03-24T11:20:58.532Z,989.25
2016-03-24T11:21:58.551Z,989.25
2016-03-24T11:22:58.554Z,989.24
2016-03-24T11:23:58.540Z,989.29
2016-03-24T11:24:58.560Z,989.32
2016-03-24T11:25:58.546Z,989.39
2016-03-24T11:26:58.548Z,989.38
2016-03-24T11:27:58.552Z,989.34
2016-03-24T11:28:58.554Z,989.4
2016-03-24T11:29:58.556Z,989.36
2016-03-24T11:30:58.576Z,989.37
2016-03-24T11:31:58.578Z,989.35
2016-03-24T11:32:58.581Z,989.31
2016-03-24T11:33:58.584Z,989.31
2016-03-24T11:34:58.586Z,989.3
2016-03-24T11:35:58.589Z,989.25
2016-03-24T11:36:58.591Z,989.23
2016-03-24T11:37:58.594Z,989.2
2016-03-24T11:38:58.597Z,989.19
2016-03-24T11:39:58.600Z,989.2
2016-03-24T11:40:58.602Z,989.18
2016-03-24T11:41:58.589Z,989.17
2016-03-24T11:42:58.608Z,989.13
2016-03-24T11:43:58.610Z,989.17
2016-03-24T11:44:58.613Z,989.14
2016-03-24T11:45:58.616Z,989.18
2016-03-24T11:46:58.618Z,989.16
2016-03-24T11:47:58.622Z,989.16
2016-03-24T11:48:58.624Z,989.18
2016-03-24T11:49:58.626Z,989.2
2016-03-24T11:50:58.629Z,989.25
2016-03-24T11:51:58.631Z,989.26
2016-03-24T11:52:58.634Z,989.3
2016-03-24T11:53:58.637Z,989.33
2016-03-24T11:54:58.640Z,989.37
2016-03-24T11:55:58.643Z,989.37
2016-03-24T11:56:58.645Z,989.37
2016-03-24T11:57:58.648Z,989.39
2016-03-24T11:58:58.651Z,989.37
2016-03-24T11:59:58.653Z,989.38
2016-03-24T12:00:58.656Z,989.4
2016-03-24T12:01:58.659Z,989.32
2016-03-24T12:02:58.662Z,989.35
2016-03-24T12:03:58.664Z,989.3
2016-03-24T12:04:58.667Z,989.32
2016-03-24T12:05:58.669Z,989.29
2016-03-24T12:06:58.656Z,989.27
2016-03-24T12:07:58.675Z,989.29
2016-03-24T12:08:58.677Z,989.29
2016-03-24T12:09:58.665Z,989.33
2016-03-24T12:10:58.683Z,989.33
2016-03-24T12:11:58.669Z,989.32
2016-03-24T12:12:58.672Z,989.3
2016-03-24T12:13:58.675Z,989.25
2016-03-24T12:14:58.678Z,989.22
2016-03-24T12:15:58.680Z,989.19
2016-03-24T12:16:58.684Z,989.2
2016-03-24T12:17:58.702Z,989.16
2016-03-24T12:18:58.688Z,989.15
2016-03-24T12:19:58.691Z,989.18
2016-03-24T12:20:58.693Z,989.16
2016-03-24T12:21:58.696Z,989.16
2016-03-24T12:22:58.699Z,989.18
2016-03-24T12:23:58.701Z,989.18
2016-03-24T12:24:58.705Z,989.17
2016-03-24T12:25:58.707Z,989.17
2016-03-24T12:26:58.710Z,989.22
2016-03-24T12:27:58.712Z,989.2
2016-03-24T12:28:58.716Z,989.17
2016-03-24T12:29:58.718Z,989.16
2016-03-24T12:30:58.721Z,989.19
2016-03-24T12:31:58.723Z,989.17